Airfield :
LOGIN :

Register | Disclaimer

   EN    FR    IT 

 










Legend :    VFR   Marginal VFR   IFR   Intensive IFR   Very Intensive IFR
Visi :
Ceiling :
>= 8 km
>= 3000ft
5 to 8 km
1000 to 3000 ft
1500m to 5 km
500 to 1000 ft
800 to 1500m
200 to 500 ft
< 800m
< 200 ft
Symbols :   Thunderstorms  Fog  Heavy snow  Heavy precipitations  Wind > 20 kt
SIGMETs :     Misc.  Thunderstorms  Icing  Turbulence  Mountain Waves  Volcanic Ashes







- Airport Elevation : 220 ft
- IATA code : CWL
- Download approach charts


EGFF - Cardiff Rhoose

CURRENT METAR :
  • 171650Z 27016KT 9999 FEW013 19/16 Q1011

EXPIRED METARs :
  • 171620Z AUTO 28015KT 9999 //////TCU 19/16 Q1011
  • 171550Z AUTO 28013KT 9999 //////TCU 19/15 Q1011
  • 171520Z AUTO 27016KT 9999 NCD 20/16 Q1011
  • 171450Z AUTO 28016KT 9999 NCD 20/16 Q1011
  • 171420Z AUTO 28015KT 9999 FEW019 20/16 Q1011

TAF TAF EGFF
Valid from the 17 at 12:00 until the 18 at 12:00 UTC


171058Z 1712/1812 25012KT 9999 SCT020
PROB30
TEMPO 1712/1809 26015G25KT 7000 SHRA BKN014
BECMG 1809/1812 26020G30KT
TEMPO 1809/1812 7000 SHRA
PROB30
TEMPO 1811/1812 4000 +SHRA BKN014 BKN020CB
ATIS : +44 1446 729 319
No reported NOTAMs for that airfield.



MET'MAP, your aeronautical weather chart ! - Copyright ORBIFLY December 2007 - Disclaimer

ORBIFLY MET'MAP TEAM :

Programming & Development : Alexandra Zaïnal
Concept & Development : Baudouin d'Aumeries
Co-Development & Prog : Marc-Olivier Méhu
Technical & hardware support : Manuel Goepfert

Contact : metmap@orbifly.com




SOURCES & CREDITS :

   NOAA